Macks Creek, Missouri
Current Conditions -  °F | °C
As of 3:15 AM on Wednesday 28 Jan 2015 (Local Time) from KH21 Reporting Station
Clear Clear  
Wind Chill: 31°   Ceiling: Unl
Heat Index: 39°   Visibility: 10mi
Dew Point: 32°   Wind: 15mph
Humidity: 75%   Direction: 130°SE
Pressure: 30.1"   Gusts: 20mph
Location:  37.97°N, 92.97°W
Report Text: KH21 280915Z AUTO 13013G17KT 10SM CLR 04/00 A3010 RMK AO2
Loading
Personal Weather Stations






























Interactive Weather Map New forecast layout! Learn more

10-Day Weather Forecast

Advertisements
Track Severe Weather on mobile